createdAt,value
2024-03-26T00:01:41.214Z,63.51
2024-03-26T00:04:09.400Z,62.97
2024-03-26T00:06:37.339Z,62.73
2024-03-26T00:09:05.447Z,62.26
2024-03-26T00:11:33.397Z,61.86
2024-03-26T00:14:01.368Z,61.56
2024-03-26T00:16:29.462Z,61.37
2024-03-26T00:18:57.398Z,61.02
2024-03-26T00:21:25.266Z,61.06
2024-03-26T00:23:53.262Z,61.05
2024-03-26T00:26:21.503Z,60.70
2024-03-26T00:28:49.363Z,60.64
2024-03-26T00:31:17.446Z,60.44
2024-03-26T00:33:45.589Z,60.36
2024-03-26T00:36:13.585Z,60.32
2024-03-26T00:38:41.571Z,59.40
2024-03-26T00:41:09.518Z,57.93
2024-03-26T00:43:37.591Z,58.18
2024-03-26T00:46:05.566Z,58.84
2024-03-26T00:48:33.633Z,59.58
2024-03-26T00:51:01.707Z,60.33
2024-03-26T00:53:29.677Z,61.25
2024-03-26T00:55:57.749Z,62.61
2024-03-26T00:58:25.750Z,64.75
2024-03-26T01:00:54.611Z,64.87
2024-03-26T01:03:22.471Z,64.58
2024-03-26T01:05:59.959Z,63.93
2024-03-26T01:08:28.053Z,63.76
2024-03-26T01:10:56.551Z,63.06
2024-03-26T01:13:24.783Z,62.40
2024-03-26T01:15:53.281Z,62.43
2024-03-26T01:18:21.131Z,62.28
2024-03-26T01:20:49.200Z,62.00
2024-03-26T01:23:17.284Z,61.45
2024-03-26T01:25:45.145Z,61.11
2024-03-26T01:28:13.170Z,60.61
2024-03-26T01:30:41.282Z,60.44
2024-03-26T01:33:09.151Z,60.14
2024-03-26T01:35:38.174Z,59.48
2024-03-26T01:38:06.105Z,58.28
2024-03-26T01:40:34.075Z,58.59
2024-03-26T01:43:02.073Z,59.40
2024-03-26T01:45:31.240Z,60.17
2024-03-26T01:47:59.312Z,60.94
2024-03-26T01:50:28.340Z,62.15
2024-03-26T01:52:56.894Z,64.47
2024-03-26T01:55:26.405Z,65.13
2024-03-26T01:57:54.592Z,64.81
2024-03-26T02:00:25.778Z,64.42
2024-03-26T02:02:54.195Z,63.96
2024-03-26T02:05:22.696Z,63.52
2024-03-26T02:07:51.162Z,63.11
2024-03-26T02:10:20.454Z,62.97
2024-03-26T02:12:48.440Z,62.65
2024-03-26T02:15:16.388Z,62.47
2024-03-26T02:17:44.358Z,62.31
2024-03-26T02:20:13.766Z,62.25
2024-03-26T02:22:41.837Z,61.93
2024-03-26T02:25:09.837Z,61.74
2024-03-26T02:27:37.666Z,61.48
2024-03-26T02:30:06.563Z,60.99
2024-03-26T02:32:34.563Z,60.87
2024-03-26T02:35:02.492Z,60.59
2024-03-26T02:37:30.465Z,60.66
2024-03-26T02:39:58.357Z,60.44
2024-03-26T02:42:26.305Z,60.30
2024-03-26T02:44:54.267Z,60.17
2024-03-26T02:47:22.662Z,59.24
2024-03-26T02:49:50.724Z,57.92
2024-03-26T02:52:18.838Z,58.17
2024-03-26T02:54:46.862Z,58.87
2024-03-26T02:57:14.809Z,59.69
2024-03-26T02:59:42.830Z,60.49
2024-03-26T03:02:11.073Z,61.31
2024-03-26T03:04:39.048Z,62.70
2024-03-26T03:07:07.037Z,65.18
2024-03-26T03:09:35.184Z,65.81
2024-03-26T03:12:03.150Z,65.54
2024-03-26T03:14:31.338Z,64.96
2024-03-26T03:16:59.234Z,64.67
2024-03-26T03:19:27.366Z,64.13
2024-03-26T03:21:55.441Z,63.42
2024-03-26T03:24:23.518Z,63.49
2024-03-26T03:26:51.481Z,63.20
2024-03-26T03:29:19.347Z,62.83
2024-03-26T03:31:47.511Z,62.65
2024-03-26T03:34:15.393Z,62.54
2024-03-26T03:36:43.349Z,62.11
2024-03-26T03:39:11.214Z,61.73
2024-03-26T03:41:39.280Z,61.75
2024-03-26T03:44:07.260Z,61.46
2024-03-26T03:46:35.223Z,61.14
2024-03-26T03:49:03.513Z,61.18
2024-03-26T03:51:31.595Z,61.04
2024-03-26T03:53:59.654Z,61.02
2024-03-26T03:56:27.819Z,60.82
2024-03-26T03:58:55.896Z,60.52
2024-03-26T04:01:23.752Z,60.44
2024-03-26T04:03:51.618Z,60.31
2024-03-26T04:06:19.697Z,60.55
2024-03-26T04:08:47.664Z,60.68
2024-03-26T04:11:15.771Z,60.79
2024-03-26T04:13:43.650Z,60.59
2024-03-26T04:16:11.986Z,60.58
2024-03-26T04:18:39.943Z,60.67
2024-03-26T04:21:10.367Z,60.48
2024-03-26T04:23:38.649Z,60.55
2024-03-26T04:26:06.828Z,60.64
2024-03-26T04:28:34.801Z,60.68
2024-03-26T04:31:03.571Z,60.86
2024-03-26T04:33:32.093Z,60.62
2024-03-26T04:36:00.037Z,60.30
2024-03-26T04:38:27.994Z,59.99
2024-03-26T04:40:55.959Z,60.72
2024-03-26T04:43:23.826Z,60.57
2024-03-26T04:45:53.695Z,60.76
2024-03-26T04:48:21.919Z,60.63
2024-03-26T04:50:50.008Z,60.58
2024-03-26T04:53:17.907Z,60.77
2024-03-26T04:55:47.078Z,60.71
2024-03-26T04:58:14.919Z,60.59
2024-03-26T05:00:42.782Z,60.47
2024-03-26T05:03:10.966Z,60.43
2024-03-26T05:05:39.047Z,60.08
2024-03-26T05:08:07.026Z,60.18
2024-03-26T05:10:35.573Z,60.17
2024-03-26T05:13:03.646Z,60.28
2024-03-26T05:15:34.838Z,60.07
2024-03-26T05:18:02.888Z,60.12
2024-03-26T05:20:30.831Z,60.07
2024-03-26T05:22:58.916Z,60.14
2024-03-26T05:25:26.874Z,60.15
2024-03-26T05:27:54.941Z,60.10
2024-03-26T05:30:22.915Z,60.10
2024-03-26T05:32:52.275Z,60.42
2024-03-26T05:35:20.409Z,60.20
2024-03-26T05:37:48.759Z,59.86
2024-03-26T05:40:17.489Z,59.65
2024-03-26T05:42:45.535Z,59.85
2024-03-26T05:45:13.498Z,60.07
2024-03-26T05:47:41.705Z,59.81
2024-03-26T05:50:10.055Z,59.83
2024-03-26T05:52:38.108Z,59.74
2024-03-26T05:55:06.794Z,59.62
2024-03-26T05:57:34.795Z,58.86
2024-03-26T06:00:02.934Z,57.86
2024-03-26T06:02:32.368Z,58.36
2024-03-26T06:05:00.544Z,59.32
2024-03-26T06:07:28.582Z,61.06
2024-03-26T06:09:56.614Z,62.17
2024-03-26T06:12:25.360Z,63.83
2024-03-26T06:14:53.336Z,63.93
2024-03-26T06:17:21.293Z,63.51
2024-03-26T06:19:50.693Z,62.78
2024-03-26T06:22:18.753Z,62.19
2024-03-26T06:24:46.720Z,61.84
2024-03-26T06:27:14.694Z,61.42
2024-03-26T06:29:42.865Z,61.10
2024-03-26T06:32:10.860Z,60.80
2024-03-26T06:34:40.041Z,60.68
2024-03-26T06:37:09.128Z,60.30
2024-03-26T06:39:37.012Z,60.14
2024-03-26T06:42:05.063Z,59.89
2024-03-26T06:44:33.341Z,59.77
2024-03-26T06:47:01.419Z,59.82
2024-03-26T06:49:29.279Z,59.72
2024-03-26T06:51:57.186Z,59.53
2024-03-26T06:54:25.324Z,58.85
2024-03-26T06:56:53.180Z,58.39
2024-03-26T06:59:21.389Z,58.75
2024-03-26T07:01:49.230Z,60.06
2024-03-26T07:04:17.199Z,62.15
2024-03-26T07:06:46.419Z,63.68
2024-03-26T07:09:14.356Z,63.35
2024-03-26T07:11:43.146Z,62.99
2024-03-26T07:14:14.094Z,62.28
2024-03-26T07:16:41.960Z,61.64
2024-03-26T07:19:09.999Z,61.21
2024-03-26T07:21:39.936Z,60.59
2024-03-26T07:31:47.174Z,58.75
2024-03-26T07:34:16.881Z,57.82
2024-03-26T07:36:44.768Z,58.37
2024-03-26T07:39:16.719Z,60.07
2024-03-26T07:41:46.156Z,60.26
2024-03-26T07:44:15.308Z,61.73
2024-03-26T07:46:45.430Z,62.49
2024-03-26T07:49:13.582Z,63.11
2024-03-26T07:51:41.767Z,62.72
2024-03-26T07:54:10.770Z,61.91
2024-03-26T07:56:38.947Z,61.02
2024-03-26T07:59:06.822Z,60.44
2024-03-26T08:01:35.298Z,59.38
2024-03-26T08:04:03.673Z,57.67
2024-03-26T08:06:31.803Z,59.01
2024-03-26T08:09:00.037Z,60.02
2024-03-26T08:11:28.388Z,60.67
2024-03-26T08:13:56.503Z,61.61
2024-03-26T08:16:24.444Z,62.07
2024-03-26T08:18:52.606Z,62.93
2024-03-26T08:21:20.563Z,62.29
2024-03-26T08:23:49.192Z,61.56
2024-03-26T08:26:17.127Z,60.57
2024-03-26T08:28:45.114Z,58.80
2024-03-26T08:31:13.168Z,58.16
2024-03-26T08:33:41.231Z,58.25
2024-03-26T08:36:09.424Z,58.97
2024-03-26T08:38:37.380Z,60.44
2024-03-26T08:41:05.482Z,60.70
2024-03-26T08:43:33.624Z,61.28
2024-03-26T08:46:01.793Z,62.26
2024-03-26T08:48:29.788Z,62.63
2024-03-26T08:50:57.775Z,61.61
2024-03-26T08:53:26.216Z,60.82
2024-03-26T08:55:54.480Z,59.94
2024-03-26T08:58:24.815Z,58.54
2024-03-26T09:00:52.833Z,58.07
2024-03-26T09:03:20.765Z,57.85
2024-03-26T09:05:49.233Z,58.89
2024-03-26T09:08:17.141Z,59.98
2024-03-26T09:10:47.131Z,61.15
2024-03-26T09:13:14.884Z,60.97
2024-03-26T09:15:42.739Z,61.37
2024-03-26T09:18:10.652Z,62.98
2024-03-26T09:20:38.586Z,63.53
2024-03-26T09:23:06.472Z,62.66
2024-03-26T09:25:34.618Z,61.79
2024-03-26T09:28:02.616Z,61.30
2024-03-26T09:30:31.194Z,60.69
2024-03-26T09:32:59.331Z,60.51
2024-03-26T09:35:27.535Z,59.44
2024-03-26T09:37:55.394Z,59.16
2024-03-26T09:40:23.403Z,59.57
2024-03-26T09:42:53.070Z,61.60
2024-03-26T09:45:21.774Z,61.69
2024-03-26T09:47:50.683Z,62.60
2024-03-26T09:50:20.460Z,62.98
2024-03-26T09:52:50.267Z,62.19
2024-03-26T09:55:19.963Z,61.53
2024-03-26T09:57:48.157Z,61.00
2024-03-26T10:00:17.158Z,60.08
2024-03-26T10:02:47.117Z,58.91
2024-03-26T10:05:19.021Z,58.80
2024-03-26T10:07:48.163Z,59.47
2024-03-26T10:10:17.036Z,60.12
2024-03-26T10:12:45.233Z,59.37
2024-03-26T10:15:13.359Z,61.12
2024-03-26T10:17:41.334Z,62.38
2024-03-26T10:20:10.237Z,62.28
2024-03-26T10:22:38.787Z,61.32
2024-03-26T10:25:07.738Z,60.69
2024-03-26T10:27:35.695Z,59.02
2024-03-26T10:30:09.276Z,58.57
2024-03-26T10:32:38.173Z,59.31
2024-03-26T10:35:09.724Z,58.71
2024-03-26T10:37:38.585Z,59.76
2024-03-26T10:40:10.346Z,60.69
2024-03-26T10:42:48.041Z,60.89
2024-03-26T10:45:32.272Z,60.93
2024-03-26T10:48:08.109Z,60.73
2024-03-26T10:50:37.164Z,60.70
2024-03-26T10:53:06.327Z,60.93
2024-03-26T10:55:35.831Z,61.02
2024-03-26T10:58:04.341Z,60.85
2024-03-26T11:00:35.671Z,60.88
2024-03-26T11:03:04.222Z,60.29
2024-03-26T11:05:32.728Z,60.44
2024-03-26T11:08:01.430Z,60.80
2024-03-26T11:10:29.590Z,61.07
2024-03-26T11:12:59.298Z,61.28
2024-03-26T11:15:29.532Z,61.28
2024-03-26T11:18:04.368Z,60.33
2024-03-26T11:20:33.861Z,61.53
2024-03-26T11:23:06.484Z,61.49
2024-03-26T11:25:35.526Z,60.90
2024-03-26T11:28:04.785Z,60.51
2024-03-26T11:30:34.795Z,61.21
2024-03-26T11:33:03.038Z,60.27
2024-03-26T11:35:31.435Z,60.30
2024-03-26T11:38:03.665Z,60.87
2024-03-26T11:40:32.762Z,60.62
2024-03-26T11:43:01.480Z,60.62
2024-03-26T11:45:29.411Z,59.46
2024-03-26T11:47:58.646Z,60.08
2024-03-26T11:50:26.792Z,59.97
2024-03-26T11:52:55.366Z,59.79
2024-03-26T11:55:23.463Z,59.63
2024-03-26T11:57:52.023Z,58.80
2024-03-26T12:00:20.811Z,59.32
2024-03-26T12:02:49.310Z,59.47
2024-03-26T12:05:17.264Z,59.39
2024-03-26T12:07:46.175Z,59.47
2024-03-26T12:10:14.120Z,59.31
2024-03-26T12:12:42.187Z,58.82
2024-03-26T12:15:13.666Z,58.55
2024-03-26T12:17:41.916Z,58.80
2024-03-26T12:20:13.371Z,58.75
2024-03-26T12:22:41.870Z,59.18
2024-03-26T12:25:11.051Z,58.49
2024-03-26T12:27:46.089Z,57.29
2024-03-26T12:30:15.479Z,57.40
2024-03-26T12:32:43.354Z,56.48
2024-03-26T12:35:11.319Z,56.33
2024-03-26T12:37:42.798Z,55.91
2024-03-26T12:40:15.035Z,56.14
2024-03-26T12:42:43.216Z,56.13
2024-03-26T12:45:11.149Z,55.96
2024-03-26T12:47:39.256Z,55.72
2024-03-26T12:50:07.989Z,55.37
2024-03-26T12:52:41.058Z,54.85
2024-03-26T12:55:09.204Z,54.31
2024-03-26T12:57:37.992Z,54.44
2024-03-26T13:00:07.009Z,54.17
2024-03-26T13:02:35.054Z,54.91
2024-03-26T13:05:03.250Z,54.78
2024-03-26T13:07:31.311Z,54.43
2024-03-26T13:09:59.482Z,54.33
2024-03-26T13:12:27.463Z,54.84
2024-03-26T13:14:55.405Z,55.06
2024-03-26T13:17:23.519Z,53.96
2024-03-26T13:19:55.499Z,52.96
2024-03-26T13:22:24.737Z,51.85
2024-03-26T13:24:52.749Z,52.84
2024-03-26T13:27:20.577Z,53.14
2024-03-26T13:29:48.643Z,53.09
2024-03-26T13:32:19.589Z,53.30
2024-03-26T13:34:47.867Z,53.01
2024-03-26T13:37:15.853Z,53.41
2024-03-26T13:39:44.000Z,52.77
2024-03-26T13:42:12.067Z,52.85
2024-03-26T13:44:39.964Z,52.65
2024-03-26T13:47:08.720Z,52.18
2024-03-26T13:49:36.685Z,52.19
2024-03-26T13:52:04.869Z,51.33
2024-03-26T13:54:34.368Z,51.18
2024-03-26T13:57:02.773Z,50.97
2024-03-26T13:59:30.913Z,49.81
2024-03-26T14:01:59.132Z,50.29
2024-03-26T14:04:27.175Z,50.67
2024-03-26T14:06:55.239Z,48.66
2024-03-26T14:09:23.526Z,48.72
2024-03-26T14:11:51.482Z,49.24
2024-03-26T14:14:19.584Z,49.35
2024-03-26T14:16:47.533Z,49.00
2024-03-26T14:19:16.062Z,49.17
2024-03-26T14:21:43.987Z,48.93
2024-03-26T14:24:11.949Z,48.94
2024-03-26T14:26:40.142Z,49.02
2024-03-26T14:29:07.985Z,49.11
2024-03-26T14:31:37.023Z,48.36
2024-03-26T14:34:04.951Z,49.02
2024-03-26T14:36:33.734Z,49.13
2024-03-26T14:39:01.667Z,48.71
2024-03-26T14:41:30.490Z,49.00
2024-03-26T14:44:01.185Z,48.28
2024-03-26T14:46:29.521Z,47.50
2024-03-26T14:48:57.465Z,47.85
2024-03-26T14:51:25.474Z,48.22
2024-03-26T14:53:53.505Z,48.63
2024-03-26T14:56:21.579Z,48.56
2024-03-26T14:58:50.287Z,48.52
2024-03-26T15:01:18.229Z,49.08
2024-03-26T15:03:46.352Z,48.61
2024-03-26T15:06:17.350Z,48.36
2024-03-26T15:08:46.027Z,48.27
2024-03-26T15:11:14.025Z,48.32
2024-03-26T15:13:42.688Z,47.92
2024-03-26T15:16:16.094Z,48.23
2024-03-26T15:18:44.976Z,48.16
2024-03-26T15:21:13.169Z,47.98
2024-03-26T15:23:41.775Z,47.75
2024-03-26T15:26:09.799Z,48.27
2024-03-26T15:28:56.648Z,47.92
2024-03-26T15:31:43.468Z,48.14
2024-03-26T15:34:11.397Z,48.36
2024-03-26T15:36:40.016Z,47.79
2024-03-26T15:39:09.460Z,47.99
2024-03-26T15:41:37.441Z,48.36
2024-03-26T15:44:05.628Z,48.62
2024-03-26T15:46:44.303Z,48.85
2024-03-26T15:49:16.204Z,48.66
2024-03-26T15:51:44.982Z,48.92
2024-03-26T15:54:13.525Z,49.17
2024-03-26T15:56:41.438Z,49.68
2024-03-26T15:59:09.405Z,49.20
2024-03-26T16:01:37.510Z,49.53
2024-03-26T16:04:07.090Z,49.22
2024-03-26T16:06:34.949Z,49.39
2024-03-26T16:09:04.063Z,49.96
2024-03-26T16:11:33.366Z,50.21
2024-03-26T16:14:02.693Z,50.63
2024-03-26T16:16:30.738Z,50.45
2024-03-26T16:18:58.692Z,50.78
2024-03-26T16:21:26.692Z,50.93
2024-03-26T16:23:54.730Z,51.06
2024-03-26T16:26:22.800Z,51.27
2024-03-26T16:28:57.844Z,51.34
2024-03-26T16:31:26.926Z,51.48
2024-03-26T16:33:54.892Z,51.67
2024-03-26T16:36:22.883Z,51.85
2024-03-26T16:38:51.034Z,52.02
2024-03-26T16:41:36.467Z,52.25
2024-03-26T16:44:04.479Z,52.38
2024-03-26T16:46:32.580Z,52.79
2024-03-26T16:49:00.520Z,52.95
2024-03-26T16:51:28.628Z,53.14
2024-03-26T16:53:56.670Z,53.27
2024-03-26T16:56:25.965Z,53.58
2024-03-26T16:58:53.953Z,53.73
2024-03-26T17:01:23.108Z,54.01
2024-03-26T17:03:51.102Z,54.21
2024-03-26T17:06:19.089Z,54.64
2024-03-26T17:08:47.257Z,54.70
2024-03-26T17:11:16.134Z,54.87
2024-03-26T17:13:44.107Z,55.09
2024-03-26T17:16:12.074Z,55.67
2024-03-26T17:18:40.072Z,55.85
2024-03-26T17:21:08.119Z,55.86
2024-03-26T17:23:36.178Z,56.09
2024-03-26T17:26:04.571Z,56.10
2024-03-26T17:28:33.243Z,56.45
2024-03-26T17:31:01.264Z,56.83
2024-03-26T17:33:29.391Z,56.76
2024-03-26T17:35:57.304Z,57.12
2024-03-26T17:38:25.599Z,57.36
2024-03-26T17:40:54.024Z,57.54
2024-03-26T17:43:22.795Z,57.76
2024-03-26T17:45:52.105Z,57.88
2024-03-26T17:48:19.941Z,58.52
2024-03-26T17:50:55.672Z,58.55
2024-03-26T17:53:23.609Z,58.62
2024-03-26T17:55:51.752Z,58.67
2024-03-26T17:58:20.100Z,58.71
2024-03-26T18:00:48.944Z,59.00
2024-03-26T18:03:18.056Z,58.97
2024-03-26T18:05:46.187Z,59.29
2024-03-26T18:08:14.068Z,59.36
2024-03-26T18:10:43.054Z,59.89
2024-03-26T18:13:12.186Z,60.21
2024-03-26T18:15:40.118Z,60.26
2024-03-26T18:18:08.599Z,60.31
2024-03-26T18:20:37.620Z,60.14
2024-03-26T18:23:05.566Z,60.44
2024-03-26T18:25:33.636Z,60.53
2024-03-26T18:28:05.257Z,60.59
2024-03-26T18:30:33.769Z,60.76
2024-03-26T18:33:01.837Z,60.87
2024-03-26T18:35:30.244Z,61.06
2024-03-26T18:37:58.283Z,61.80
2024-03-26T18:40:26.250Z,61.51
2024-03-26T18:42:54.117Z,61.47
2024-03-26T18:45:22.200Z,61.66
2024-03-26T18:47:50.275Z,61.83
2024-03-26T18:50:18.235Z,61.67
2024-03-26T18:52:46.233Z,61.78
2024-03-26T18:55:14.166Z,61.96
2024-03-26T18:57:42.243Z,63.05
2024-03-26T19:00:11.084Z,64.47
2024-03-26T19:02:42.585Z,64.65
2024-03-26T19:05:12.515Z,63.79
2024-03-26T19:07:40.676Z,61.41
2024-03-26T19:10:09.470Z,59.34
2024-03-26T19:12:37.451Z,58.36
2024-03-26T19:15:06.727Z,58.40
2024-03-26T19:17:35.097Z,58.54
2024-03-26T19:20:03.606Z,59.01
2024-03-26T19:22:31.544Z,59.46
2024-03-26T19:24:59.614Z,59.86
2024-03-26T19:27:27.595Z,60.13
2024-03-26T19:29:55.760Z,60.56
2024-03-26T19:32:23.638Z,60.91
2024-03-26T19:34:52.844Z,61.34
2024-03-26T19:37:20.825Z,61.42
2024-03-26T19:39:48.977Z,61.54
2024-03-26T19:42:16.961Z,62.24
2024-03-26T19:44:47.772Z,63.66
2024-03-26T19:47:15.638Z,64.35
2024-03-26T19:49:43.710Z,63.90
2024-03-26T19:52:12.088Z,63.16
2024-03-26T19:54:40.058Z,61.50
2024-03-26T19:57:08.047Z,60.50
2024-03-26T19:59:36.913Z,58.23
2024-03-26T20:02:04.931Z,58.53
2024-03-26T20:04:32.963Z,58.99
2024-03-26T20:07:01.026Z,59.46
2024-03-26T20:09:29.120Z,60.03
2024-03-26T20:11:57.070Z,60.33
2024-03-26T20:14:25.245Z,61.04
2024-03-26T20:16:53.939Z,61.09
2024-03-26T20:19:22.098Z,61.36
2024-03-26T20:21:50.274Z,61.73
2024-03-26T20:24:18.243Z,62.02
2024-03-26T20:26:46.725Z,62.95
2024-03-26T20:29:14.820Z,64.51
2024-03-26T20:31:43.181Z,64.08
2024-03-26T20:34:11.081Z,63.93
2024-03-26T20:36:39.019Z,62.88
2024-03-26T20:39:10.356Z,62.25
2024-03-26T20:41:38.867Z,61.22
2024-03-26T20:44:07.015Z,58.77
2024-03-26T20:46:35.049Z,57.99
2024-03-26T20:49:02.945Z,58.25
2024-03-26T20:51:30.842Z,58.72
2024-03-26T20:53:58.781Z,59.24
2024-03-26T20:56:26.759Z,59.68
2024-03-26T20:58:56.050Z,60.09
2024-03-26T21:01:24.021Z,60.55
2024-03-26T21:03:52.021Z,61.20
2024-03-26T21:06:20.389Z,61.59
2024-03-26T21:08:48.587Z,61.92
2024-03-26T21:11:17.334Z,62.90
2024-03-26T21:13:45.298Z,64.17
2024-03-26T21:16:14.751Z,64.13
2024-03-26T21:18:49.151Z,63.80
2024-03-26T21:21:18.844Z,61.87
2024-03-26T21:23:48.730Z,61.08
2024-03-26T21:26:18.959Z,60.90
2024-03-26T21:28:47.699Z,59.33
2024-03-26T21:31:15.841Z,58.08
2024-03-26T21:33:44.197Z,58.18
2024-03-26T21:36:12.818Z,59.04
2024-03-26T21:38:40.997Z,59.37
2024-03-26T21:41:09.303Z,59.97
2024-03-26T21:43:37.533Z,60.82
2024-03-26T21:46:05.511Z,61.11
2024-03-26T21:48:33.755Z,61.54
2024-03-26T21:51:03.151Z,61.83
2024-03-26T21:53:31.135Z,62.59
2024-03-26T21:56:10.519Z,64.22
2024-03-26T21:58:39.553Z,64.46
2024-03-26T22:01:12.079Z,62.72
2024-03-26T22:03:40.832Z,62.38
2024-03-26T22:06:12.899Z,61.83
2024-03-26T22:08:42.281Z,60.62
2024-03-26T22:11:12.940Z,59.76
2024-03-26T22:13:41.874Z,58.15
2024-03-26T22:16:10.386Z,58.38
2024-03-26T22:18:38.364Z,59.14
2024-03-26T22:21:06.216Z,59.52
2024-03-26T22:23:34.194Z,60.51
2024-03-26T22:26:05.336Z,61.07
2024-03-26T22:28:33.718Z,61.21
2024-03-26T22:31:06.941Z,61.68
2024-03-26T22:33:38.281Z,63.22
2024-03-26T22:36:10.319Z,64.35
2024-03-26T22:38:38.489Z,63.49
2024-03-26T22:41:06.887Z,63.29
2024-03-26T22:43:35.059Z,62.36
2024-03-26T22:46:04.918Z,60.96
2024-03-26T22:48:33.047Z,60.91
2024-03-26T22:51:01.813Z,59.52
2024-03-26T22:53:29.872Z,58.16
2024-03-26T22:56:03.507Z,58.22
2024-03-26T22:58:33.836Z,58.87
2024-03-26T23:01:08.237Z,59.74
2024-03-26T23:03:36.445Z,60.03
2024-03-26T23:06:05.710Z,60.63
2024-03-26T23:08:33.773Z,61.16
2024-03-26T23:11:01.875Z,61.72
2024-03-26T23:13:30.122Z,62.88
2024-03-26T23:16:04.298Z,64.34
2024-03-26T23:18:32.927Z,64.12
2024-03-26T23:21:00.991Z,62.05
2024-03-26T23:23:29.370Z,60.83
2024-03-26T23:25:57.376Z,60.27
2024-03-26T23:28:25.512Z,58.81
2024-03-26T23:30:53.581Z,58.18
2024-03-26T23:33:21.492Z,58.99
2024-03-26T23:35:50.043Z,59.76
2024-03-26T23:38:18.002Z,60.45
2024-03-26T23:40:45.995Z,61.15
2024-03-26T23:43:13.944Z,61.99
2024-03-26T23:45:42.229Z,61.94
2024-03-26T23:48:10.309Z,62.90
2024-03-26T23:50:38.359Z,63.92
2024-03-26T23:53:06.232Z,62.94
2024-03-26T23:55:34.107Z,62.11
2024-03-26T23:58:01.958Z,61.73
